logo
Search for airport 
image banner adimage banner adimage banner ad
image banner ad

ED1747 - Sindelfingen Staedt. Krhs.

Located in Sindelfingen, Germany

ICAO - , IATA -

Data provided by Airmate  

General information

Coordinates: N48°42'54" E9°1'28"
Elevation is 1789 feet MSL.
 
View others Airports in Baden-Württemberg

Operational data

Special qualification required
Current time UTC:
Current local time:
Weather at : EDDS - Stuttgart ( 15 km )
METAR: EDDS 171250Z AUTO 07006KT 040V110 9999 BKN047 23/13 Q1022 NOSIG
TAF: TAF EDDS 171100Z 1712/1812 35004KT 9999 BKN040 BECMG 1804/1807 07005KT
View NOTAMs / SUP AIP / TFR affecting this airport [VIEW]
Communications frequencies: [VIEW]

Runways:

Airport contact information

Address: Sindelfingen Germany

Satellite view of ED1747